Time;durP1;ratioP1;P1;durP2;ratioP2;P2;SDS_P1;SDS_P2;PMS_P1;PMS_P2;Temp;Humidity;BMP_temperature;BMP_pressure;BME280_temperature;BME280_humidity;BME280_pressure;Samples;Min_cycle;Max_cycle;Signal;HPM_P1;HPM_P2
2023/02/20 00:01:51;;;;;;;4.63;2.20;;;4.00;97.80;;;;;;5014850;28;20034;-60
2023/02/20 00:04:17;;;;;;;7.10;2.40;;;4.10;97.80;;;;;;5016820;28;20033;-60
2023/02/20 00:06:43;;;;;;;5.70;2.70;;;4.00;97.80;;;;;;5019106;28;20040;-61
2023/02/20 00:09:09;;;;;;;5.47;2.42;;;4.00;97.80;;;;;;5016624;28;20022;-61
2023/02/20 00:11:35;;;;;;;3.97;2.40;;;4.00;97.90;;;;;;5017547;28;20583;-61
2023/02/20 00:14:01;;;;;;;7.35;2.55;;;4.00;97.90;;;;;;5014520;28;20033;-62
2023/02/20 00:16:27;;;;;;;4.07;2.40;;;4.00;98.00;;;;;;5014043;28;20116;-61
2023/02/20 00:18:52;;;;;;;4.63;2.58;;;3.90;97.90;;;;;;5012239;28;20117;-62
2023/02/20 00:21:18;;;;;;;6.57;2.70;;;3.90;98.00;;;;;;5013280;28;20104;-60
2023/02/20 00:23:44;;;;;;;7.50;2.75;;;3.90;98.10;;;;;;5015500;28;20449;-61
2023/02/20 00:26:12;;;;;;;5.75;2.50;;;3.90;98.30;;;;;;5015984;28;20033;-62
2023/02/20 00:28:40;;;;;;;3.90;2.75;;;3.90;98.40;;;;;;5017153;28;20030;-59
2023/02/20 00:31:07;;;;;;;6.47;2.60;;;3.90;98.50;;;;;;5017684;28;20124;-62
2023/02/20 00:33:35;;;;;;;5.47;2.55;;;3.90;98.50;;;;;;5016402;28;20406;-61
2023/02/20 00:36:01;;;;;;;4.57;2.78;;;3.90;98.80;;;;;;5012911;28;20064;-62
2023/02/20 00:38:27;;;;;;;6.25;3.58;;;3.90;98.80;;;;;;5014534;28;20060;-62
2023/02/20 00:40:52;;;;;;;5.38;2.97;;;3.90;98.80;;;;;;5012817;28;20049;-62
2023/02/20 00:43:18;;;;;;;5.28;2.85;;;3.90;98.60;;;;;;5014599;28;20036;-61
2023/02/20 00:45:44;;;;;;;4.38;3.10;;;3.90;98.50;;;;;;5014691;28;20358;-61
2023/02/20 00:48:10;;;;;;;5.13;3.08;;;3.90;98.50;;;;;;5016686;28;20064;-61
2023/02/20 00:50:36;;;;;;;4.20;2.95;;;3.90;98.50;;;;;;5015096;28;20513;-61
2023/02/20 00:53:02;;;;;;;5.70;2.95;;;3.90;98.50;;;;;;5015159;28;20137;-60
2023/02/20 00:55:28;;;;;;;6.18;2.63;;;3.90;98.50;;;;;;5017861;28;20042;-59
2023/02/20 00:57:54;;;;;;;6.68;3.17;;;3.90;98.60;;;;;;5015308;28;20033;-62
2023/02/20 01:00:28;;;;;;;5.78;2.97;;;3.90;98.80;;;;;;5012738;28;20116;-60
2023/02/20 01:02:54;;;;;;;4.60;2.90;;;3.90;98.80;;;;;;5013569;28;20018;-62
2023/02/20 01:05:22;;;;;;;7.30;2.83;;;3.90;98.80;;;;;;5010148;28;20715;-61
2023/02/20 01:07:48;;;;;;;4.45;2.65;;;3.90;98.80;;;;;;5017452;28;20033;-61
2023/02/20 01:10:14;;;;;;;4.63;3.03;;;3.90;98.70;;;;;;5016330;28;20048;-62
2023/02/20 01:12:40;;;;;;;7.97;3.40;;;3.90;98.80;;;;;;5014421;28;20034;-61
2023/02/20 01:15:08;;;;;;;5.63;3.17;;;4.00;99.00;;;;;;5014540;28;20045;-60
2023/02/20 01:17:34;;;;;;;5.88;3.35;;;4.00;98.80;;;;;;5012602;28;20421;-61
2023/02/20 01:20:00;;;;;;;5.68;3.20;;;4.10;98.90;;;;;;5020316;28;20033;-62
2023/02/20 01:22:26;;;;;;;5.97;2.78;;;4.20;98.70;;;;;;5012666;28;20567;-60
2023/02/20 01:24:51;;;;;;;6.18;2.63;;;4.20;98.80;;;;;;5012791;28;20707;-62
2023/02/20 01:27:17;;;;;;;8.15;3.58;;;4.30;98.60;;;;;;5011158;28;20055;-61
2023/02/20 01:29:43;;;;;;;7.30;2.95;;;4.30;98.50;;;;;;5017049;28;20033;-61
2023/02/20 01:32:11;;;;;;;5.53;3.10;;;4.40;98.40;;;;;;5012505;28;20033;-62
2023/02/20 01:34:37;;;;;;;9.18;3.10;;;4.40;98.40;;;;;;5015055;28;20088;-59
2023/02/20 01:37:03;;;;;;;6.47;3.05;;;4.50;98.30;;;;;;5013820;28;20775;-62
2023/02/20 01:39:30;;;;;;;6.55;3.05;;;4.50;98.40;;;;;;5015091;28;20045;-59
2023/02/20 01:42:05;;;;;;;7.20;3.13;;;4.50;98.20;;;;;;5016701;28;20108;-59
2023/02/20 01:44:34;;;;;;;5.25;3.13;;;4.50;98.30;;;;;;5021527;28;20040;-62
2023/02/20 01:47:06;;;;;;;6.75;3.40;;;4.60;98.40;;;;;;5025483;28;20041;-62
2023/02/20 01:49:36;;;;;;;6.07;2.65;;;4.60;98.50;;;;;;5016097;28;20029;-62
2023/02/20 01:52:14;;;;;;;5.95;3.03;;;4.60;98.40;;;;;;5016365;28;20113;-61
2023/02/20 01:54:44;;;;;;;6.80;3.15;;;4.60;98.50;;;;;;5013597;28;20586;-62
2023/02/20 01:57:16;;;;;;;6.38;3.65;;;4.70;98.50;;;;;;5014777;28;20089;-62
2023/02/20 01:59:42;;;;;;;8.23;3.13;;;4.80;98.40;;;;;;5014165;28;21460;-62
2023/02/20 02:02:10;;;;;;;4.03;2.40;;;4.90;98.30;;;;;;5011991;28;20679;-60
2023/02/20 02:04:38;;;;;;;7.78;3.40;;;4.90;98.20;;;;;;5012132;28;20034;-62
2023/02/20 02:07:04;;;;;;;6.78;3.40;;;4.90;97.90;;;;;;5010065;28;20898;-62
2023/02/20 02:09:36;;;;;;;6.93;3.20;;;4.90;98.20;;;;;;5018134;28;20475;-62
2023/02/20 02:12:02;;;;;;;9.80;3.47;;;4.90;98.10;;;;;;5016601;28;20434;-61
2023/02/20 02:14:29;;;;;;;7.45;3.92;;;5.00;98.20;;;;;;5014903;28;20083;-62
2023/02/20 02:17:20;;;;;;;8.50;3.70;;;5.00;98.10;;;;;;5016838;28;20106;-60
2023/02/20 02:20:07;;;;;;;7.18;3.55;;;5.00;98.20;;;;;;5017714;28;20029;-60
2023/02/20 02:23:07;;;;;;;7.65;3.80;;;5.00;98.40;;;;;;5010367;28;20030;-62
2023/02/20 02:25:47;;;;;;;9.18;3.50;;;5.00;98.40;;;;;;5018400;28;20136;-61
2023/02/20 02:28:24;;;;;;;7.90;3.45;;;5.00;98.30;;;;;;5012625;28;20034;-61
2023/02/20 02:31:18;;;;;;;12.93;4.10;;;5.10;98.40;;;;;;5018229;28;20106;-62
2023/02/20 02:34:22;;;;;;;10.50;4.28;;;5.20;98.30;;;;;;5019572;28;20509;-62
2023/02/20 02:37:04;;;;;;;7.28;3.25;;;5.30;98.20;;;;;;5015621;28;20029;-62
2023/02/20 02:39:35;;;;;;;7.53;3.33;;;5.20;98.30;;;;;;5013876;28;20030;-60
2023/02/20 02:42:07;;;;;;;9.32;4.88;;;5.20;98.30;;;;;;5010638;28;20133;-60
2023/02/20 02:44:43;;;;;;;8.00;4.28;;;5.20;98.50;;;;;;5014224;28;20077;-60
2023/02/20 02:47:49;;;;;;;8.38;3.75;;;5.10;98.60;;;;;;5013894;28;20053;-62
2023/02/20 02:50:31;;;;;;;9.38;4.38;;;5.10;99.10;;;;;;4938963;29;20054;-62
2023/02/20 02:52:58;;;;;;;8.43;4.10;;;5.10;99.00;;;;;;5005671;28;20049;-62
2023/02/20 02:55:29;;;;;;;12.77;4.13;;;5.00;98.80;;;;;;5014999;28;20069;-61
2023/02/20 02:57:56;;;;;;;8.55;3.80;;;5.00;99.20;;;;;;5016214;28;20038;-61
2023/02/20 03:00:39;;;;;;;6.35;3.88;;;5.00;99.30;;;;;;5016509;28;20456;-62
2023/02/20 03:03:15;;;;;;;7.10;3.97;;;5.10;99.50;;;;;;5017815;28;20038;-61
2023/02/20 03:05:45;;;;;;;;;;;5.10;99.30;;;;;;5012408;28;20095;-57
2023/02/20 03:08:31;;;;;;;7.10;4.25;;;5.10;99.50;;;;;;5017074;28;19921;-61
2023/02/20 03:11:05;;;;;;;8.15;4.18;;;5.10;99.60;;;;;;5009482;28;20036;-62
2023/02/20 03:16:31;;;;;;;10.27;4.38;;;5.20;99.40;;;;;;5013251;28;20076;-62
2023/02/20 03:19:01;;;;;;;8.25;3.65;;;5.20;99.70;;;;;;5015489;28;20432;-61
2023/02/20 03:21:32;;;;;;;7.10;3.45;;;5.30;99.60;;;;;;5009507;28;20808;-62
2023/02/20 03:24:00;;;;;;;7.65;3.97;;;5.40;99.30;;;;;;5016902;28;20080;-62
2023/02/20 03:26:32;;;;;;;6.50;3.65;;;5.60;99.20;;;;;;5012766;28;20202;-61
2023/02/20 03:29:28;;;;;;;7.45;3.53;;;5.70;98.90;;;;;;5007874;28;20176;-62
2023/02/20 03:43:31;;;;;;;10.97;4.33;;;5.90;99.00;;;;;;5012757;28;20041;-60
2023/02/20 03:46:07;;;;;;;8.00;4.70;;;5.90;99.10;;;;;;5018483;28;20319;-62
2023/02/20 03:48:41;;;;;;;9.82;4.55;;;5.90;99.40;;;;;;5023359;28;20056;-62
2023/02/20 03:54:00;;;;;;;8.45;4.03;;;5.80;99.40;;;;;;5014071;28;20029;-62
2023/02/20 03:56:55;;;;;;;7.38;4.30;;;5.80;99.80;;;;;;5008963;28;20037;-62
2023/02/20 03:59:28;;;;;;;10.80;4.97;;;5.90;99.90;;;;;;5012706;28;20038;-60
2023/02/20 04:01:58;;;;;;;10.82;5.85;;;5.90;99.80;;;;;;5010988;28;20535;-62
2023/02/20 04:04:41;;;;;;;8.25;4.20;;;6.00;99.90;;;;;;5018315;28;20041;-62
2023/02/20 04:07:14;;;;;;;9.43;4.90;;;6.00;99.90;;;;;;5033133;28;20033;-63
2023/02/20 04:09:44;;;;;;;10.18;5.43;;;6.10;99.90;;;;;;5018265;28;20025;-62
2023/02/20 04:12:23;;;;;;;9.52;4.70;;;6.20;99.90;;;;;;5011323;28;20034;-62
2023/02/20 04:14:52;;;;;;;11.48;5.72;;;6.20;99.80;;;;;;5016211;28;20116;-62
2023/02/20 04:17:28;;;;;;;14.52;5.03;;;6.30;99.80;;;;;;5009701;28;20088;-62
2023/02/20 04:19:55;;;;;;;9.27;4.55;;;6.30;99.70;;;;;;5021685;28;20034;-62
2023/02/20 04:22:27;;;;;;;9.38;5.22;;;6.30;99.80;;;;;;5016430;28;20505;-62
2023/02/20 04:25:19;;;;;;;8.35;5.07;;;6.20;99.90;;;;;;5019586;28;20033;-62
2023/02/20 04:27:46;;;;;;;7.13;4.43;;;6.20;99.90;;;;;;5020991;28;20033;-62
2023/02/20 04:30:12;;;;;;;8.15;5.13;;;6.20;99.90;;;;;;5014075;28;20029;-62
2023/02/20 04:32:38;;;;;;;7.50;5.03;;;6.20;99.90;;;;;;5014492;28;20030;-62
2023/02/20 04:35:04;;;;;;;10.45;5.28;;;6.40;99.90;;;;;;5014261;28;20083;-64
2023/02/20 04:37:30;;;;;;;10.52;4.95;;;6.50;99.90;;;;;;5010339;28;20040;-62
2023/02/20 04:39:57;;;;;;;9.50;5.55;;;6.50;99.90;;;;;;5017973;28;20120;-62
2023/02/20 04:42:23;;;;;;;11.65;5.80;;;6.40;99.90;;;;;;5016358;28;20141;-62
2023/02/20 04:44:49;;;;;;;10.98;6.10;;;6.40;99.90;;;;;;5009434;28;20769;-62
2023/02/20 04:47:17;;;;;;;10.32;5.82;;;6.40;99.90;;;;;;5015056;28;20041;-62
2023/02/20 04:49:43;;;;;;;10.70;5.47;;;6.30;99.90;;;;;;5018148;28;20044;-62
2023/02/20 04:52:10;;;;;;;9.65;5.43;;;6.30;99.90;;;;;;5011108;28;20212;-62
2023/02/20 04:54:37;;;;;;;9.20;5.93;;;6.30;99.90;;;;;;5014230;28;20468;-62
2023/02/20 04:57:04;;;;;;;10.65;5.97;;;6.30;99.90;;;;;;4996006;28;20092;-62
2023/02/20 04:59:30;;;;;;;10.13;5.85;;;6.30;99.90;;;;;;5014001;28;20059;-62
2023/02/20 05:01:59;;;;;;;7.95;5.32;;;6.40;99.90;;;;;;5013418;28;20037;-62
2023/02/20 05:04:25;;;;;;;9.07;5.50;;;6.50;99.90;;;;;;5017306;28;20428;-61
2023/02/20 05:06:53;;;;;;;11.50;5.68;;;6.50;99.90;;;;;;5020028;28;20033;-62
2023/02/20 05:09:20;;;;;;;8.68;5.63;;;6.50;99.90;;;;;;5015016;28;20029;-62
2023/02/20 05:11:46;;;;;;;9.48;5.68;;;6.50;99.90;;;;;;5017105;28;20065;-62
2023/02/20 05:14:13;;;;;;;9.35;5.60;;;6.50;99.90;;;;;;5015519;28;20030;-61
2023/02/20 05:16:40;;;;;;;9.25;5.53;;;6.50;99.90;;;;;;5015122;28;20108;-61
2023/02/20 05:19:07;;;;;;;9.15;5.13;;;6.60;99.90;;;;;;5019035;28;20393;-62
2023/02/20 05:24:18;;;;;;;9.15;5.15;;;6.70;99.90;;;;;;5016205;28;20055;-61
2023/02/20 05:26:44;;;;;;;8.05;4.97;;;6.90;99.90;;;;;;5017549;28;20034;-62
2023/02/20 05:29:11;;;;;;;9.10;5.30;;;6.90;99.80;;;;;;5017738;28;20453;-61
2023/02/20 05:31:41;;;;;;;10.05;5.90;;;6.80;99.70;;;;;;5018272;28;20891;-62
2023/02/20 05:34:07;;;;;;;10.85;5.53;;;6.80;99.90;;;;;;5014643;28;20033;-62
2023/02/20 05:36:34;;;;;;;7.85;4.95;;;6.80;99.90;;;;;;5011004;28;20033;-62
2023/02/20 05:39:00;;;;;;;8.30;4.93;;;6.90;99.90;;;;;;5013116;28;20425;-62
2023/02/20 05:41:26;;;;;;;7.80;5.03;;;6.90;99.80;;;;;;5012650;28;20037;-62
2023/02/20 05:43:56;;;;;;;8.85;5.05;;;7.00;99.40;;;;;;5015334;28;20445;-62
2023/02/20 05:46:23;;;;;;;11.07;5.20;;;7.00;99.70;;;;;;5010866;28;20037;-62
2023/02/20 05:48:50;;;;;;;8.25;5.25;;;7.00;99.60;;;;;;5011783;28;20083;-63
2023/02/20 05:51:23;;;;;;;7.00;4.50;;;7.00;99.30;;;;;;5018034;28;20048;-62
2023/02/20 05:53:49;;;;;;;7.28;4.88;;;7.10;99.30;;;;;;5020630;28;20033;-62
2023/02/20 05:56:16;;;;;;;8.85;5.35;;;7.10;99.30;;;;;;5025272;28;20048;-62
2023/02/20 05:58:43;;;;;;;10.27;6.18;;;7.20;99.00;;;;;;5022151;28;20037;-61
2023/02/20 06:01:15;;;;;;;11.55;5.47;;;7.20;98.70;;;;;;5007669;28;20373;-62
2023/02/20 06:03:41;;;;;;;11.30;6.15;;;7.10;99.00;;;;;;5011095;28;20860;-62
2023/02/20 06:06:07;;;;;;;9.07;5.88;;;7.20;99.10;;;;;;5016127;28;20057;-62
2023/02/20 06:08:33;;;;;;;9.93;6.50;;;7.10;98.80;;;;;;5011776;28;20800;-62
2023/02/20 06:10:58;;;;;;;12.63;7.45;;;7.10;98.70;;;;;;5016117;28;20029;-60
2023/02/20 06:13:24;;;;;;;15.75;8.77;;;7.20;98.70;;;;;;5013904;28;20444;-62
2023/02/20 06:15:50;;;;;;;15.18;9.38;;;7.30;98.60;;;;;;5013963;28;20044;-61
2023/02/20 06:18:16;;;;;;;22.83;11.10;;;7.40;98.50;;;;;;5015252;28;20037;-62
2023/02/20 06:20:41;;;;;;;19.83;11.27;;;7.40;98.30;;;;;;5019057;28;20103;-62
2023/02/20 06:23:07;;;;;;;14.60;8.88;;;7.30;98.40;;;;;;5007331;28;20465;-62
2023/02/20 06:25:33;;;;;;;14.15;8.27;;;7.40;98.60;;;;;;5009236;28;20147;-62
2023/02/20 06:27:59;;;;;;;16.50;8.90;;;7.50;98.50;;;;;;5013155;28;20163;-61
2023/02/20 06:30:25;;;;;;;13.30;7.85;;;7.40;98.10;;;;;;5010306;28;20045;-62
2023/02/20 06:32:50;;;;;;;13.00;8.57;;;7.40;98.60;;;;;;5019229;28;20138;-61
2023/02/20 06:35:17;;;;;;;10.88;7.40;;;7.40;98.50;;;;;;5014461;28;20053;-62
2023/02/20 06:37:42;;;;;;;13.18;8.55;;;7.40;98.50;;;;;;5008906;28;20120;-61
2023/02/20 06:40:09;;;;;;;13.88;8.25;;;7.50;98.30;;;;;;5015184;28;20900;-62
2023/02/20 06:42:34;;;;;;;12.95;7.72;;;7.50;98.30;;;;;;5017424;28;20132;-60
2023/02/20 06:45:00;;;;;;;11.65;7.30;;;7.50;98.30;;;;;;5006373;28;20167;-60
2023/02/20 06:47:26;;;;;;;13.23;8.20;;;7.50;98.10;;;;;;5010535;28;20489;-62
2023/02/20 06:49:52;;;;;;;12.70;8.25;;;7.40;97.80;;;;;;5013191;28;20919;-61
2023/02/20 06:52:18;;;;;;;11.60;7.60;;;7.40;98.10;;;;;;5013461;28;20087;-62
2023/02/20 06:54:43;;;;;;;13.25;8.38;;;7.30;98.20;;;;;;5015889;28;20045;-61
2023/02/20 06:57:09;;;;;;;12.95;8.27;;;7.20;98.20;;;;;;5013601;28;20033;-62
2023/02/20 06:59:40;;;;;;;13.15;8.85;;;7.20;98.00;;;;;;5014178;28;20036;-62
2023/02/20 07:02:11;;;;;;;16.38;8.20;;;7.20;98.00;;;;;;5012348;28;20034;-62
2023/02/20 07:04:37;;;;;;;13.75;8.35;;;7.40;97.50;;;;;;5008840;28;20112;-62
2023/02/20 07:07:03;;;;;;;15.88;6.82;;;7.40;97.30;;;;;;5012038;28;20044;-62
2023/02/20 07:09:29;;;;;;;15.05;7.07;;;7.40;97.40;;;;;;5017450;28;20128;-62
2023/02/20 07:11:55;;;;;;;15.85;7.47;;;7.50;97.20;;;;;;5012430;28;20033;-61
2023/02/20 07:14:21;;;;;;;11.82;6.93;;;7.60;96.90;;;;;;5013939;28;20041;-61
2023/02/20 07:16:47;;;;;;;11.57;6.43;;;7.70;96.80;;;;;;5012727;28;20044;-62
2023/02/20 07:19:13;;;;;;;11.35;6.68;;;7.80;96.30;;;;;;5013599;28;20030;-62
2023/02/20 07:21:38;;;;;;;9.45;6.20;;;7.70;96.00;;;;;;5015367;28;20034;-60
2023/02/20 07:24:05;;;;;;;18.38;7.35;;;7.70;96.20;;;;;;5016049;28;20035;-62
2023/02/20 07:26:30;;;;;;;17.05;6.53;;;7.70;96.10;;;;;;5009472;28;20037;-62
2023/02/20 07:28:57;;;;;;;21.20;8.50;;;7.70;96.00;;;;;;5013182;28;20035;-61
2023/02/20 07:31:23;;;;;;;12.60;6.95;;;7.70;95.90;;;;;;5013273;28;20092;-61
2023/02/20 07:33:49;;;;;;;12.80;6.10;;;7.70;96.10;;;;;;5013139;28;20044;-62
2023/02/20 07:36:16;;;;;;;9.63;6.38;;;7.80;96.20;;;;;;5015788;28;20531;-62
2023/02/20 07:38:42;;;;;;;14.00;6.53;;;7.80;96.00;;;;;;5019602;28;20030;-61
2023/02/20 07:41:09;;;;;;;16.58;6.82;;;7.80;95.80;;;;;;5016377;28;20025;-62
2023/02/20 07:43:35;;;;;;;11.10;5.78;;;7.90;96.00;;;;;;5016371;28;20041;-62
2023/02/20 07:46:01;;;;;;;9.90;5.93;;;8.00;95.90;;;;;;5013174;28;20524;-62
2023/02/20 07:48:26;;;;;;;8.63;6.05;;;8.00;95.40;;;;;;5017567;28;20091;-62
2023/02/20 07:50:52;;;;;;;10.15;5.80;;;8.00;95.40;;;;;;5023563;28;20025;-62
2023/02/20 07:53:19;;;;;;;8.93;5.78;;;8.00;95.40;;;;;;5015960;28;20163;-62
2023/02/20 07:55:45;;;;;;;9.55;5.65;;;7.80;96.00;;;;;;5019328;28;20075;-62
2023/02/20 07:58:11;;;;;;;9.13;5.35;;;7.80;96.00;;;;;;5018054;28;20030;-62
2023/02/20 08:00:37;;;;;;;9.27;5.53;;;7.90;96.00;;;;;;5025758;28;20040;-62
2023/02/20 08:03:03;;;;;;;9.55;4.95;;;7.90;95.80;;;;;;5020260;28;20038;-62
2023/02/20 08:05:29;;;;;;;9.38;5.63;;;8.10;95.60;;;;;;5021085;28;20060;-62
2023/02/20 08:07:55;;;;;;;8.68;5.68;;;8.10;95.20;;;;;;5018972;28;20648;-62
2023/02/20 08:10:24;;;;;;;11.77;5.88;;;8.10;95.00;;;;;;5017325;28;20044;-62
2023/02/20 08:12:51;;;;;;;10.68;6.07;;;8.10;95.30;;;;;;5015755;28;20029;-62
2023/02/20 08:15:18;;;;;;;9.23;5.65;;;7.90;95.60;;;;;;5013409;28;20073;-62
2023/02/20 08:17:44;;;;;;;9.90;6.07;;;8.00;95.80;;;;;;5019940;28;20476;-62
2023/02/20 08:20:11;;;;;;;9.30;5.72;;;8.00;95.40;;;;;;5017302;28;20058;-62
2023/02/20 08:22:37;;;;;;;8.38;5.50;;;8.00;95.40;;;;;;5010412;28;20040;-62
2023/02/20 08:25:04;;;;;;;9.43;5.70;;;8.00;95.60;;;;;;5013323;28;20037;-62
2023/02/20 08:27:31;;;;;;;9.65;5.22;;;8.00;95.40;;;;;;5016272;28;20042;-62
2023/02/20 08:29:57;;;;;;;7.72;4.97;;;7.90;95.70;;;;;;5013079;28;20042;-62
2023/02/20 08:32:23;;;;;;;8.10;5.32;;;8.00;95.90;;;;;;5013070;28;20214;-61
2023/02/20 08:34:49;;;;;;;9.10;5.75;;;8.00;95.60;;;;;;5013380;28;20038;-61
2023/02/20 08:37:15;;;;;;;8.52;5.07;;;8.00;95.50;;;;;;5018228;28;20037;-62
2023/02/20 08:39:41;;;;;;;8.55;5.25;;;8.10;95.80;;;;;;5016807;28;20030;-62
2023/02/20 08:42:06;;;;;;;12.57;7.10;;;8.00;95.60;;;;;;5014359;28;20033;-61
2023/02/20 08:44:32;;;;;;;20.95;11.93;;;8.10;95.50;;;;;;5016122;28;20058;-60
2023/02/20 08:46:58;;;;;;;12.32;6.30;;;8.20;95.80;;;;;;5014776;28;20045;-62
2023/02/20 08:49:24;;;;;;;13.07;7.88;;;8.20;95.50;;;;;;5015802;28;20091;-62
2023/02/20 08:51:54;;;;;;;18.63;11.95;;;8.30;95.50;;;;;;5019105;28;20037;-61
2023/02/20 08:54:19;;;;;;;12.05;6.53;;;8.30;95.10;;;;;;5010237;28;20030;-62
2023/02/20 08:56:45;;;;;;;15.95;8.52;;;8.30;95.40;;;;;;5016247;28;20461;-62
2023/02/20 08:59:11;;;;;;;15.57;8.10;;;8.40;95.20;;;;;;5014674;28;20034;-62
2023/02/20 09:01:40;;;;;;;9.73;5.57;;;8.40;95.10;;;;;;5012497;28;20592;-62
2023/02/20 09:04:07;;;;;;;13.48;6.32;;;8.30;95.30;;;;;;5021711;28;20133;-62
2023/02/20 09:06:33;;;;;;;17.15;6.50;;;8.30;95.10;;;;;;5015822;28;20064;-61
2023/02/20 09:08:59;;;;;;;16.63;7.60;;;8.30;95.20;;;;;;5012195;28;20037;-61
2023/02/20 09:11:25;;;;;;;13.40;5.70;;;8.30;95.50;;;;;;5012565;28;20072;-62
2023/02/20 09:13:51;;;;;;;13.88;6.07;;;8.30;95.50;;;;;;5013911;28;20041;-62
2023/02/20 09:16:20;;;;;;;13.95;5.70;;;8.50;95.20;;;;;;5011827;28;20078;-62
2023/02/20 09:18:46;;;;;;;8.05;4.72;;;8.60;94.70;;;;;;5014432;28;20036;-62
2023/02/20 09:21:15;;;;;;;9.00;4.15;;;8.50;94.70;;;;;;5013631;28;20056;-62
2023/02/20 09:23:41;;;;;;;6.15;3.95;;;8.60;95.10;;;;;;5011601;28;20030;-62
2023/02/20 09:26:06;;;;;;;9.15;4.43;;;8.50;95.00;;;;;;5015674;28;20056;-61
2023/02/20 09:28:32;;;;;;;10.88;5.03;;;8.50;95.30;;;;;;5013857;28;20041;-62
2023/02/20 09:30:59;;;;;;;9.65;5.22;;;8.70;95.00;;;;;;5012596;28;20037;-62
2023/02/20 09:33:26;;;;;;;11.15;4.35;;;8.60;94.80;;;;;;5017419;28;20042;-62
2023/02/20 09:35:53;;;;;;;7.70;4.40;;;8.70;95.10;;;;;;5011826;28;20026;-62
2023/02/20 09:38:21;;;;;;;9.30;5.15;;;8.80;94.40;;;;;;5016116;28;20025;-62
2023/02/20 09:40:51;;;;;;;7.53;4.35;;;8.90;94.80;;;;;;5009623;28;20036;-61
2023/02/20 09:43:38;;;;;;;7.13;4.18;;;9.10;94.10;;;;;;5008046;28;20045;-62
2023/02/20 09:46:04;;;;;;;7.63;4.05;;;9.30;93.70;;;;;;5016074;28;20040;-62
2023/02/20 09:48:48;;;;;;;6.63;3.92;;;9.40;93.80;;;;;;5017546;28;20017;-61
2023/02/20 09:51:17;;;;;;;4.65;3.28;;;9.60;93.00;;;;;;5011805;28;20044;-62
2023/02/20 09:54:11;;;;;;;9.68;5.45;;;9.80;93.10;;;;;;5017557;28;20718;-62
2023/02/20 09:56:45;;;;;;;7.53;4.85;;;9.80;92.50;;;;;;5013273;28;20133;-61
2023/02/20 09:59:30;;;;;;;7.10;4.70;;;9.80;92.30;;;;;;5015242;28;20029;-62
2023/02/20 10:02:10;;;;;;;8.32;5.10;;;9.80;92.10;;;;;;5014257;28;20107;-62
2023/02/20 10:04:41;;;;;;;5.70;3.38;;;9.80;92.30;;;;;;5012470;28;20034;-61
2023/02/20 10:07:19;;;;;;;6.45;4.05;;;9.80;92.50;;;;;;5018981;28;20041;-62
2023/02/20 10:09:44;;;;;;;16.13;8.50;;;10.00;92.30;;;;;;5016694;28;20041;-62
2023/02/20 10:12:19;;;;;;;10.20;5.30;;;10.10;91.60;;;;;;5014523;28;20272;-62
2023/02/20 10:14:45;;;;;;;13.00;6.97;;;10.20;91.50;;;;;;5017197;28;20040;-62
2023/02/20 10:17:27;;;;;;;8.55;4.40;;;10.20;91.10;;;;;;5024088;28;20029;-62
2023/02/20 10:20:13;;;;;;;9.00;5.10;;;10.30;91.20;;;;;;5014869;28;20022;-62
2023/02/20 10:22:57;;;;;;;5.13;3.65;;;10.40;90.60;;;;;;5013549;28;20071;-62
2023/02/20 10:25:37;;;;;;;5.47;4.03;;;10.40;91.00;;;;;;5015439;28;20860;-62
2023/02/20 10:28:17;;;;;;;7.75;3.53;;;10.40;90.70;;;;;;5013695;28;20048;-62
2023/02/20 10:31:16;;;;;;;5.60;3.70;;;10.40;91.00;;;;;;5017904;28;20037;-62
2023/02/20 10:33:49;;;;;;;7.07;4.07;;;10.40;90.70;;;;;;5009431;28;20466;-62
2023/02/20 10:36:44;;;;;;;9.88;4.32;;;10.50;90.80;;;;;;5012706;28;20068;-62
2023/02/20 10:39:15;;;;;;;8.10;4.30;;;10.50;91.40;;;;;;5014792;28;20393;-62
2023/02/20 10:41:53;;;;;;;9.85;4.05;;;10.40;91.10;;;;;;5001327;28;20044;-60
2023/02/20 10:45:17;;;;;;;8.95;4.57;;;10.60;91.10;;;;;;5014715;28;20800;-61
2023/02/20 10:47:51;;;;;;;5.45;3.30;;;10.90;90.60;;;;;;4988941;28;20037;-61
2023/02/20 10:50:27;;;;;;;6.25;3.22;;;11.00;90.10;;;;;;5008111;28;20068;-61
2023/02/20 10:52:58;;;;;;;;;;;11.20;90.20;;;;;;5009546;28;20021;-59
2023/02/20 10:55:31;;;;;;;6.97;3.28;;;11.30;90.10;;;;;;5014213;28;19920;-61
2023/02/20 10:58:08;;;;;;;5.88;3.45;;;11.30;88.90;;;;;;5015852;28;20700;-61
2023/02/20 11:00:50;;;;;;;6.43;3.88;;;11.40;89.60;;;;;;5007629;28;20029;-61
2023/02/20 11:03:48;;;;;;;5.07;3.45;;;11.60;89.20;;;;;;5009526;28;20043;-62
2023/02/20 11:06:18;;;;;;;4.88;3.00;;;11.60;88.40;;;;;;5010116;28;21014;-61
2023/02/20 11:08:46;;;;;;;7.63;3.90;;;11.50;87.60;;;;;;5008374;28;20042;-61
2023/02/20 11:11:35;;;;;;;6.55;3.55;;;11.40;88.00;;;;;;5014964;28;20067;-61
2023/02/20 11:14:09;;;;;;;7.32;3.25;;;11.20;89.80;;;;;;5016191;28;20029;-61
2023/02/20 11:16:41;;;;;;;6.32;4.07;;;11.40;89.20;;;;;;5018705;28;20225;-62
2023/02/20 11:19:22;;;;;;;7.85;3.30;;;11.40;89.30;;;;;;5018493;28;20044;-62
2023/02/20 11:21:49;;;;;;;4.78;3.47;;;11.30;89.70;;;;;;5012060;28;20815;-61
2023/02/20 11:24:26;;;;;;;8.50;4.15;;;11.20;89.80;;;;;;5012368;28;20457;-62
2023/02/20 11:27:12;;;;;;;7.03;3.80;;;11.10;90.20;;;;;;5012127;28;20691;-61
2023/02/20 11:30:03;;;;;;;5.32;3.92;;;11.00;90.90;;;;;;5013334;28;20049;-61
2023/02/20 11:32:37;;;;;;;9.80;5.15;;;11.00;91.20;;;;;;5034285;28;20113;-61
2023/02/20 11:35:18;;;;;;;7.38;3.65;;;11.10;91.10;;;;;;5037701;28;20116;-62
2023/02/20 11:37:45;;;;;;;12.35;5.20;;;11.30;91.10;;;;;;5021819;28;20135;-61
2023/02/20 11:40:31;;;;;;;11.20;5.57;;;11.50;91.10;;;;;;5034624;28;20048;-61
2023/02/20 11:43:12;;;;;;;8.43;5.38;;;11.60;90.80;;;;;;5035185;28;20551;-62
2023/02/20 11:45:39;;;;;;;7.28;5.38;;;11.70;90.80;;;;;;5034214;28;20116;-61
2023/02/20 11:48:11;;;;;;;9.57;4.60;;;11.80;90.40;;;;;;5036570;28;20877;-62
2023/02/20 11:50:48;;;;;;;9.63;4.30;;;12.00;90.60;;;;;;5030568;28;20029;-62
2023/02/20 11:53:31;;;;;;;6.72;3.67;;;12.00;90.30;;;;;;5033378;28;20033;-59
2023/02/20 11:56:18;;;;;;;5.55;4.18;;;12.10;90.20;;;;;;5037747;28;20037;-61
2023/02/20 11:58:45;;;;;;;7.13;4.63;;;12.10;89.10;;;;;;5033920;28;21049;-61
2023/02/20 12:01:32;;;;;;;4.70;3.72;;;12.20;90.00;;;;;;5035040;28;20025;-61
2023/02/20 12:03:59;;;;;;;7.57;4.50;;;12.40;89.70;;;;;;5030156;28;20044;-61
2023/02/20 12:06:41;;;;;;;9.57;4.82;;;12.50;89.10;;;;;;5033581;28;20072;-61
2023/02/20 12:09:19;;;;;;;6.68;3.83;;;12.60;88.20;;;;;;5036883;28;20028;-62
2023/02/20 12:11:45;;;;;;;6.57;4.22;;;12.50;88.20;;;;;;5031193;28;20040;-62
2023/02/20 12:14:13;;;;;;;5.95;4.45;;;12.50;88.60;;;;;;5033719;28;20041;-61
2023/02/20 12:16:57;;;;;;;8.50;4.97;;;12.50;88.60;;;;;;5034562;28;20036;-61
2023/02/20 12:19:26;;;;;;;8.48;4.75;;;12.20;89.20;;;;;;5032182;28;20037;-61
2023/02/20 12:22:15;;;;;;;7.78;4.35;;;12.10;90.10;;;;;;5034469;28;20797;-61
2023/02/20 12:24:59;;;;;;;7.60;4.97;;;11.90;90.70;;;;;;5031407;28;20045;-61
2023/02/20 12:27:32;;;;;;;9.43;5.07;;;11.70;91.30;;;;;;5030955;28;20048;-62
2023/02/20 12:30:26;;;;;;;7.53;4.85;;;11.80;91.30;;;;;;5033444;28;20072;-62
2023/02/20 12:33:17;;;;;;;9.02;6.20;;;11.90;91.50;;;;;;5028810;28;20246;-62
2023/02/20 12:36:04;;;;;;;6.85;5.10;;;11.90;91.40;;;;;;5036048;28;20519;-62
2023/02/20 12:38:35;;;;;;;10.35;5.20;;;11.90;91.50;;;;;;5032579;28;20029;-62
2023/02/20 12:41:31;;;;;;;8.65;5.45;;;11.90;91.40;;;;;;5032431;28;20104;-62
2023/02/20 12:44:09;;;;;;;9.27;5.47;;;11.90;91.60;;;;;;5032397;28;20030;-62
2023/02/20 12:46:49;;;;;;;18.45;6.50;;;11.80;92.10;;;;;;5030764;28;20957;-61
2023/02/20 12:49:24;;;;;;;11.07;6.15;;;11.80;92.40;;;;;;5030062;28;20132;-61
2023/02/20 12:52:00;;;;;;;9.30;5.57;;;11.90;92.30;;;;;;5028944;28;20044;-61
2023/02/20 12:54:25;;;;;;;;;;;11.90;92.30;;;;;;5030609;28;20044;-61
2023/02/20 12:57:18;;;;;;;9.20;6.30;;;11.90;92.10;;;;;;5031894;28;19913;-61
2023/02/20 13:00:05;;;;;;;9.18;6.38;;;11.80;92.30;;;;;;5027843;28;20519;-61
2023/02/20 13:02:42;;;;;;;9.13;6.35;;;11.80;92.50;;;;;;5027592;28;20032;-61
2023/02/20 13:05:12;;;;;;;10.38;6.65;;;11.80;92.70;;;;;;5030136;28;20034;-61
2023/02/20 13:07:41;;;;;;;9.98;6.60;;;11.70;92.70;;;;;;5029240;28;20073;-61
2023/02/20 13:10:16;;;;;;;13.80;8.07;;;11.70;92.90;;;;;;5034077;28;20041;-61
2023/02/20 13:12:42;;;;;;;11.13;6.95;;;11.70;93.00;;;;;;5028071;28;20047;-62
2023/02/20 13:15:11;;;;;;;12.13;7.03;;;11.60;93.00;;;;;;5033243;28;20061;-61
2023/02/20 13:17:51;;;;;;;12.63;7.22;;;11.60;93.70;;;;;;5020637;28;20466;-61
2023/02/20 13:20:20;;;;;;;12.82;7.43;;;11.60;93.30;;;;;;5030639;28;20087;-63
2023/02/20 13:23:28;;;;;;;14.05;7.72;;;11.60;93.30;;;;;;5032215;28;20100;-61
2023/02/20 13:25:55;;;;;;;14.57;8.40;;;11.60;93.50;;;;;;5032631;28;20043;-60
2023/02/20 13:28:41;;;;;;;13.60;7.60;;;11.50;93.80;;;;;;5034077;28;20111;-62
2023/02/20 13:31:19;;;;;;;13.57;8.88;;;11.40;94.10;;;;;;5032040;28;20110;-61
2023/02/20 13:34:05;;;;;;;12.38;8.18;;;11.40;94.20;;;;;;5030897;28;20124;-62
2023/02/20 13:36:34;;;;;;;14.73;8.75;;;11.30;94.70;;;;;;5010328;28;20055;-61